sensor_id;sensor_type;location;lat;lon;timestamp;temperature;humidity
80290;SHT30;69592;44.804;-0.550;2024-02-28T00:01:06;6.98;90.78
80290;SHT30;69592;44.804;-0.550;2024-02-28T00:03:31;6.99;90.69
80290;SHT30;69592;44.804;-0.550;2024-02-28T00:05:58;6.98;90.94
80290;SHT30;69592;44.804;-0.550;2024-02-28T00:08:23;7.01;90.66
80290;SHT30;69592;44.804;-0.550;2024-02-28T00:10:49;7.02;90.76
80290;SHT30;69592;44.804;-0.550;2024-02-28T00:20:32;6.78;91.29
80290;SHT30;69592;44.804;-0.550;2024-02-28T00:22:57;6.77;91.38
80290;SHT30;69592;44.804;-0.550;2024-02-28T00:25:23;6.75;91.41
80290;SHT30;69592;44.804;-0.550;2024-02-28T00:27:48;6.72;91.57
80290;SHT30;69592;44.804;-0.550;2024-02-28T00:30:13;6.67;91.67
80290;SHT30;69592;44.804;-0.550;2024-02-28T00:32:39;6.68;91.75
80290;SHT30;69592;44.804;-0.550;2024-02-28T03:25:08;5.55;93.76
80290;SHT30;69592;44.804;-0.550;2024-02-28T03:27:34;5.58;93.80
80290;SHT30;69592;44.804;-0.550;2024-02-28T03:29:59;5.58;93.94
80290;SHT30;69592;44.804;-0.550;2024-02-28T03:32:25;5.51;93.91
80290;SHT30;69592;44.804;-0.550;2024-02-28T03:34:50;5.55;93.88
80290;SHT30;69592;44.804;-0.550;2024-02-28T03:37:16;5.59;93.87
80290;SHT30;69592;44.804;-0.550;2024-02-28T03:39:41;5.65;93.81
80290;SHT30;69592;44.804;-0.550;2024-02-28T03:42:06;5.65;93.79
80290;SHT30;69592;44.804;-0.550;2024-02-28T03:44:32;5.63;93.78
80290;SHT30;69592;44.804;-0.550;2024-02-28T03:46:57;5.70;94.02
80290;SHT30;69592;44.804;-0.550;2024-02-28T03:49:23;5.72;93.71
80290;SHT30;69592;44.804;-0.550;2024-02-28T03:51:48;5.66;93.87
80290;SHT30;69592;44.804;-0.550;2024-02-28T03:54:13;5.67;93.84
80290;SHT30;69592;44.804;-0.550;2024-02-28T03:56:39;5.72;93.96
80290;SHT30;69592;44.804;-0.550;2024-02-28T03:59:04;5.59;94.05
80290;SHT30;69592;44.804;-0.550;2024-02-28T04:01:30;5.58;94.24
80290;SHT30;69592;44.804;-0.550;2024-02-28T04:03:56;5.53;94.33
80290;SHT30;69592;44.804;-0.550;2024-02-28T04:06:21;5.52;94.42
80290;SHT30;69592;44.804;-0.550;2024-02-28T04:08:46;5.52;94.48
80290;SHT30;69592;44.804;-0.550;2024-02-28T04:11:12;5.53;94.48
80290;SHT30;69592;44.804;-0.550;2024-02-28T04:13:37;5.56;94.37
80290;SHT30;69592;44.804;-0.550;2024-02-28T04:16:03;5.52;94.53
80290;SHT30;69592;44.804;-0.550;2024-02-28T04:18:29;5.56;94.43
80290;SHT30;69592;44.804;-0.550;2024-02-28T04:20:55;5.60;94.28
80290;SHT30;69592;44.804;-0.550;2024-02-28T04:23:20;5.65;94.23
80290;SHT30;69592;44.804;-0.550;2024-02-28T04:25:46;5.46;94.54
80290;SHT30;69592;44.804;-0.550;2024-02-28T04:28:11;5.39;94.92
80290;SHT30;69592;44.804;-0.550;2024-02-28T04:30:36;5.36;94.97
80290;SHT30;69592;44.804;-0.550;2024-02-28T04:33:02;5.42;94.96
80290;SHT30;69592;44.804;-0.550;2024-02-28T04:35:27;5.42;94.86
80290;SHT30;69592;44.804;-0.550;2024-02-28T04:37:53;5.42;94.90
80290;SHT30;69592;44.804;-0.550;2024-02-28T04:40:18;5.35;95.06
80290;SHT30;69592;44.804;-0.550;2024-02-28T04:42:44;5.34;95.23
80290;SHT30;69592;44.804;-0.550;2024-02-28T04:45:10;5.44;95.05
80290;SHT30;69592;44.804;-0.550;2024-02-28T04:47:36;5.49;95.38
80290;SHT30;69592;44.804;-0.550;2024-02-28T04:50:03;5.52;95.18
80290;SHT30;69592;44.804;-0.550;2024-02-28T04:52:30;5.55;95.00
80290;SHT30;69592;44.804;-0.550;2024-02-28T04:54:56;5.52;95.00
80290;SHT30;69592;44.804;-0.550;2024-02-28T04:57:22;5.56;95.06
80290;SHT30;69592;44.804;-0.550;2024-02-28T04:59:48;5.56;94.87
80290;SHT30;69592;44.804;-0.550;2024-02-28T05:02:13;5.44;94.79
80290;SHT30;69592;44.804;-0.550;2024-02-28T05:04:39;5.35;94.94
80290;SHT30;69592;44.804;-0.550;2024-02-28T05:07:04;5.30;94.97
80290;SHT30;69592;44.804;-0.550;2024-02-28T05:09:32;5.21;95.20
80290;SHT30;69592;44.804;-0.550;2024-02-28T05:11:57;5.17;95.43
80290;SHT30;69592;44.804;-0.550;2024-02-28T05:16:49;5.07;95.52
80290;SHT30;69592;44.804;-0.550;2024-02-28T05:19:14;4.98;95.93
80290;SHT30;69592;44.804;-0.550;2024-02-28T05:21:43;4.88;96.08
80290;SHT30;69592;44.804;-0.550;2024-02-28T05:24:08;4.98;95.97
80290;SHT30;69592;44.804;-0.550;2024-02-28T05:26:35;4.91;96.40
80290;SHT30;69592;44.804;-0.550;2024-02-28T05:29:02;4.90;96.44
80290;SHT30;69592;44.804;-0.550;2024-02-28T05:31:28;4.88;96.71
80290;SHT30;69592;44.804;-0.550;2024-02-28T05:33:55;4.84;96.69
80290;SHT30;69592;44.804;-0.550;2024-02-28T05:36:22;4.85;96.72
80290;SHT30;69592;44.804;-0.550;2024-02-28T05:38:49;4.85;96.63
80290;SHT30;69592;44.804;-0.550;2024-02-28T05:41:16;4.84;96.81
80290;SHT30;69592;44.804;-0.550;2024-02-28T05:43:42;4.84;96.67
80290;SHT30;69592;44.804;-0.550;2024-02-28T05:46:07;4.92;96.59
80290;SHT30;69592;44.804;-0.550;2024-02-28T05:48:33;4.92;96.52
80290;SHT30;69592;44.804;-0.550;2024-02-28T05:51:00;4.95;96.50
80290;SHT30;69592;44.804;-0.550;2024-02-28T05:53:26;5.04;96.44
80290;SHT30;69592;44.804;-0.550;2024-02-28T05:55:52;5.10;96.40
80290;SHT30;69592;44.804;-0.550;2024-02-28T05:58:24;5.08;96.06
80290;SHT30;69592;44.804;-0.550;2024-02-28T06:00:51;5.05;96.26
80290;SHT30;69592;44.804;-0.550;2024-02-28T06:03:16;5.08;96.27
80290;SHT30;69592;44.804;-0.550;2024-02-28T06:05:42;5.05;96.07
80290;SHT30;69592;44.804;-0.550;2024-02-28T06:08:07;5.05;95.96
80290;SHT30;69592;44.804;-0.550;2024-02-28T06:10:32;5.02;95.85
80290;SHT30;69592;44.804;-0.550;2024-02-28T06:12:58;5.02;95.78
80290;SHT30;69592;44.804;-0.550;2024-02-28T06:15:24;5.05;96.10
80290;SHT30;69592;44.804;-0.550;2024-02-28T06:17:49;4.97;96.34
80290;SHT30;69592;44.804;-0.550;2024-02-28T06:20:14;4.97;96.35
80290;SHT30;69592;44.804;-0.550;2024-02-28T06:22:40;4.90;95.84
80290;SHT30;69592;44.804;-0.550;2024-02-28T06:25:07;4.84;95.73
80290;SHT30;69592;44.804;-0.550;2024-02-28T06:27:38;4.79;96.13
80290;SHT30;69592;44.804;-0.550;2024-02-28T06:30:05;4.76;96.34
80290;SHT30;69592;44.804;-0.550;2024-02-28T06:32:34;4.71;96.36
80290;SHT30;69592;44.804;-0.550;2024-02-28T06:34:59;4.71;96.46
80290;SHT30;69592;44.804;-0.550;2024-02-28T06:37:27;4.70;96.54
80290;SHT30;69592;44.804;-0.550;2024-02-28T06:39:53;4.73;96.31
80290;SHT30;69592;44.804;-0.550;2024-02-28T06:42:18;4.74;96.11
80290;SHT30;69592;44.804;-0.550;2024-02-28T06:47:09;4.81;96.04
80290;SHT30;69592;44.804;-0.550;2024-02-28T06:49:34;4.80;95.75
80290;SHT30;69592;44.804;-0.550;2024-02-28T06:52:00;4.79;95.91
80290;SHT30;69592;44.804;-0.550;2024-02-28T06:56:52;4.80;96.03
80290;SHT30;69592;44.804;-0.550;2024-02-28T06:59:17;4.80;96.00
80290;SHT30;69592;44.804;-0.550;2024-02-28T07:01:42;4.84;96.06
80290;SHT30;69592;44.804;-0.550;2024-02-28T07:04:08;4.84;96.30
80290;SHT30;69592;44.804;-0.550;2024-02-28T07:06:33;4.80;96.11
80290;SHT30;69592;44.804;-0.550;2024-02-28T07:08:59;4.87;96.41
80290;SHT30;69592;44.804;-0.550;2024-02-28T07:11:24;4.74;97.38
80290;SHT30;69592;44.804;-0.550;2024-02-28T07:16:15;4.88;97.04
80290;SHT30;69592;44.804;-0.550;2024-02-28T07:18:41;4.91;96.63
80290;SHT30;69592;44.804;-0.550;2024-02-28T07:21:06;4.97;96.90
80290;SHT30;69592;44.804;-0.550;2024-02-28T07:23:32;5.02;96.54
80290;SHT30;69592;44.804;-0.550;2024-02-28T07:25:57;5.14;96.56
80290;SHT30;69592;44.804;-0.550;2024-02-28T07:28:23;5.14;96.69
80290;SHT30;69592;44.804;-0.550;2024-02-28T07:30:48;5.30;96.73
80290;SHT30;69592;44.804;-0.550;2024-02-28T07:33:14;5.31;96.71
80290;SHT30;69592;44.804;-0.550;2024-02-28T07:35:48;5.45;96.71
80290;SHT30;69592;44.804;-0.550;2024-02-28T07:38:14;5.48;96.93
80290;SHT30;69592;44.804;-0.550;2024-02-28T07:40:41;5.59;96.58
80290;SHT30;69592;44.804;-0.550;2024-02-28T07:43:06;5.75;95.93
80290;SHT30;69592;44.804;-0.550;2024-02-28T07:45:32;5.90;95.58
80290;SHT30;69592;44.804;-0.550;2024-02-28T07:47:57;5.96;94.97
80290;SHT30;69592;44.804;-0.550;2024-02-28T07:50:23;5.95;94.82
80290;SHT30;69592;44.804;-0.550;2024-02-28T07:52:48;6.03;94.88
80290;SHT30;69592;44.804;-0.550;2024-02-28T07:55:13;6.16;94.23
80290;SHT30;69592;44.804;-0.550;2024-02-28T07:57:39;6.27;94.47
80290;SHT30;69592;44.804;-0.550;2024-02-28T08:00:04;6.33;94.11
80290;SHT30;69592;44.804;-0.550;2024-02-28T08:02:30;6.38;93.89
80290;SHT30;69592;44.804;-0.550;2024-02-28T08:04:56;6.45;93.75
80290;SHT30;69592;44.804;-0.550;2024-02-28T08:07:21;6.59;94.24
80290;SHT30;69592;44.804;-0.550;2024-02-28T08:09:47;6.69;93.55
80290;SHT30;69592;44.804;-0.550;2024-02-28T08:12:12;6.78;93.06
80290;SHT30;69592;44.804;-0.550;2024-02-28T08:14:37;6.81;93.50
80290;SHT30;69592;44.804;-0.550;2024-02-28T08:17:03;6.95;93.25
80290;SHT30;69592;44.804;-0.550;2024-02-28T08:19:28;7.09;92.68
80290;SHT30;69592;44.804;-0.550;2024-02-28T08:21:54;7.23;91.65
80290;SHT30;69592;44.804;-0.550;2024-02-28T08:24:19;7.32;91.73
80290;SHT30;69592;44.804;-0.550;2024-02-28T08:26:44;7.43;92.27
80290;SHT30;69592;44.804;-0.550;2024-02-28T08:29:12;7.53;91.75
80290;SHT30;69592;44.804;-0.550;2024-02-28T08:31:43;7.60;91.79
80290;SHT30;69592;44.804;-0.550;2024-02-28T08:34:08;7.71;91.51
80290;SHT30;69592;44.804;-0.550;2024-02-28T08:36:34;7.87;91.23
80290;SHT30;69592;44.804;-0.550;2024-02-28T08:39:00;7.97;90.58
80290;SHT30;69592;44.804;-0.550;2024-02-28T08:41:25;7.99;90.61
80290;SHT30;69592;44.804;-0.550;2024-02-28T08:43:50;8.09;90.24
80290;SHT30;69592;44.804;-0.550;2024-02-28T08:46:16;8.15;90.44
80290;SHT30;69592;44.804;-0.550;2024-02-28T08:48:41;8.38;90.53
80290;SHT30;69592;44.804;-0.550;2024-02-28T08:51:07;8.62;89.84
80290;SHT30;69592;44.804;-0.550;2024-02-28T08:53:32;8.75;88.57
80290;SHT30;69592;44.804;-0.550;2024-02-28T08:55:58;8.68;87.88
80290;SHT30;69592;44.804;-0.550;2024-02-28T08:58:24;8.83;87.66
80290;SHT30;69592;44.804;-0.550;2024-02-28T09:00:49;9.23;87.32
80290;SHT30;69592;44.804;-0.550;2024-02-28T09:03:14;9.57;86.41
80290;SHT30;69592;44.804;-0.550;2024-02-28T09:08:05;9.91;85.52
80290;SHT30;69592;44.804;-0.550;2024-02-28T09:10:31;9.59;85.61
80290;SHT30;69592;44.804;-0.550;2024-02-28T09:12:59;9.42;85.83
80290;SHT30;69592;44.804;-0.550;2024-02-28T09:15:25;9.28;86.02
80290;SHT30;69592;44.804;-0.550;2024-02-28T09:17:50;9.24;87.03
80290;SHT30;69592;44.804;-0.550;2024-02-28T09:20:16;9.09;87.61
80290;SHT30;69592;44.804;-0.550;2024-02-28T09:22:42;9.17;87.89
80290;SHT30;69592;44.804;-0.550;2024-02-28T09:25:08;9.16;87.49
80290;SHT30;69592;44.804;-0.550;2024-02-28T09:27:34;9.32;87.47
80290;SHT30;69592;44.804;-0.550;2024-02-28T09:30:00;9.54;87.30
80290;SHT30;69592;44.804;-0.550;2024-02-28T09:32:26;9.75;87.41
80290;SHT30;69592;44.804;-0.550;2024-02-28T09:34:51;9.81;86.63
80290;SHT30;69592;44.804;-0.550;2024-02-28T09:37:16;9.86;86.27
80290;SHT30;69592;44.804;-0.550;2024-02-28T09:39:42;10.01;86.06
80290;SHT30;69592;44.804;-0.550;2024-02-28T09:42:07;10.13;84.70
80290;SHT30;69592;44.804;-0.550;2024-02-28T09:44:34;10.22;85.64
80290;SHT30;69592;44.804;-0.550;2024-02-28T09:49:26;10.40;84.53
80290;SHT30;69592;44.804;-0.550;2024-02-28T10:04:09;11.03;83.85
80290;SHT30;69592;44.804;-0.550;2024-02-28T10:09:01;11.14;81.57
80290;SHT30;69592;44.804;-0.550;2024-02-28T10:16:18;11.46;82.04
80290;SHT30;69592;44.804;-0.550;2024-02-28T10:18:44;11.55;81.71
80290;SHT30;69592;44.804;-0.550;2024-02-28T10:21:10;11.25;79.92
80290;SHT30;69592;44.804;-0.550;2024-02-28T23:39:37;11.18;99.58
80290;SHT30;69592;44.804;-0.550;2024-02-28T23:42:03;11.21;99.40
80290;SHT30;69592;44.804;-0.550;2024-02-28T23:44:29;11.22;99.65
80290;SHT30;69592;44.804;-0.550;2024-02-28T23:46:55;11.27;99.33
80290;SHT30;69592;44.804;-0.550;2024-02-28T23:49:20;11.28;99.38
80290;SHT30;69592;44.804;-0.550;2024-02-28T23:51:45;11.34;99.33
80290;SHT30;69592;44.804;-0.550;2024-02-28T23:54:11;11.43;99.20
80290;SHT30;69592;44.804;-0.550;2024-02-28T23:56:36;11.43;99.07
80290;SHT30;69592;44.804;-0.550;2024-02-28T23:59:02;11.38;99.36
